EYPA/PLQ METAR and TAF weather

Enter ICAO airport designator
Station Type Date Time Source
EYPA METAR 2019/12/16 03:50 UTC NOAA

EYPA 160350Z 29016G32KT 250V340 9999 -SHRA BKN017CB 06/04 Q0999 R19/2///95


Station Type Date Time Source
EYPA Decoded METAR 2019/12/16 03:50 UTC NOAA

Palanga Intl., Lithuania (EYPA) 55-55-12N 021-03E
Dec 15, 2019 - 10:50 PM EST / 2019.12.16 0350 UTC
Wind: from the WNW (290 degrees) at 18 MPH (16 KT) gusting to 37 MPH (32 KT) (direction variable):0
Visibility: greater than 7 mile(s):0
Sky conditions: mostly cloudy
Weather: light rain showers; Cumulonimbus clouds observed
Temperature: 42 F (6 C)
Dew Point: 39 F (4 C)
Relative Humidity: 86%
Pressure (altimeter): 29.50 in. Hg (0999 hPa)
ob: EYPA 160350Z 29016G32KT 250V340 9999 -SHRA BKN017CB 06/04 Q0999 R19/2///95
cycle: 4

Station Type Date Time Source
EYPA TAF 2019/12/15 18:31 UTC NOAA

TAF EYPA 151728Z 1518/1618 21020G34KT 8000 SCT009 BKN015CB
TEMPO 1518/1521 3000 TSRA BKN006
BECMG 1521/1522 24024G50KT
BECMG 1606/1608 27014G30KT SCT015
BECMG 1611/1612 24010KT

Example: see airport list